LiveATC.Net - Listen to live air traffic control over the Internet!


ICAO: X04  IATA: X04   Airport: Orlando Apopka Airport
City: Apopka   State/Province: Florida
Country: United States   Continent: North America
KLEE METAR Weather: KLEE 021153Z 32003KT 10SM CLR 12/11 A3016 RMK AO2 SLP211 T01220106 10156 20117 53011
X04 Flight Activity (FlightAware)

X04 CTAF
Feed Status: UP   Listeners: 0
Listen in your browser - HTML5 player (in browser, HTML5)
Click here to listen with your own player (launches your MP3 player)
Archive Access: X04 CTAF
FacilityFrequency
Apopka CTAF123.050

NOTICE

Unauthorized use prohibited. See LiveATC.net Terms of Service


Airport/ARTCC Code
Frequency Search
(e.g., 124.400, 128.75)
Site-wide search
 


Browse Feeds
Top 50 Feeds
HF Oceanic Feeds
Coverage Map
Bad Weather Areas

LiveATC FAQ
Offer LiveATC feed
Contact LiveATC.net
Press Inquiries

LiveATC on iPhone
LiveATC on Android

Windows Phone
Windows 8/10

LiveATC Mobile
(Mobile browser)

ATC Audio Archives
Interesting Recordings

LiveATC Forums


Home Page
About LiveATC.net
Make a Donation
Terms of Use
Privacy Policy

Canadian Air Freqs

AIRMETs/SIGMETs

FAA Airport Status
NAS Status
Arrival Demand


Server Software By:
Icecast.org
Liquidsoap